Time;durP1;ratioP1;P1;durP2;ratioP2;P2;SDS_P1;SDS_P2;PMS_P1;PMS_P2;Temp;Humidity;BMP_temperature;BMP_pressure;BME280_temperature;BME280_humidity;BME280_pressure;Samples;Min_cycle;Max_cycle;Signal;HPM_P1;HPM_P2
2022/02/04 00:01:13;;;;;;;6.33;4.17;;;;;;;;;;5119780;28;20231;-71
2022/02/04 00:06:47;;;;;;;6.83;4.93;;;;;;;;;;5138519;27;20215;-71
2022/02/04 00:09:34;;;;;;;4.50;4.03;;;;;;;;;;5140300;27;20214;-71
2022/02/04 00:20:39;;;;;;;5.50;4.07;;;;;;;;;;5036707;28;20207;-71
2022/02/04 00:23:14;;;;;;;5.70;4.83;;;;;;;;;;5081244;28;20227;-71
2022/02/04 00:26:00;;;;;;;4.97;4.33;;;;;;;;;;5118772;28;20239;-71
2022/02/04 00:28:40;;;;;;;4.77;4.27;;;;;;;;;;5120446;27;20205;-70
2022/02/04 00:31:24;;;;;;;4.83;4.30;;;;;;;;;;5118453;28;20578;-71
2022/02/04 00:33:56;;;;;;;6.87;4.17;;;;;;;;;;5118811;27;20583;-71
2022/02/04 00:36:32;;;;;;;4.80;4.10;;;;;;;;;;5119222;28;20231;-70
2022/02/04 00:39:05;;;;;;;4.70;4.17;;;;;;;;;;5125541;27;20283;-71
2022/02/04 00:41:37;;;;;;;5.13;4.53;;;;;;;;;;5118696;28;20204;-71
2022/02/04 00:44:06;;;;;;;6.03;4.43;;;;;;;;;;5135143;27;20203;-71
2022/02/04 00:46:41;;;;;;;8.70;5.07;;;;;;;;;;5139286;27;20614;-71
2022/02/04 00:49:18;;;;;;;6.50;4.77;;;;;;;;;;5139091;27;20207;-71
2022/02/04 00:51:58;;;;;;;9.00;5.90;;;;;;;;;;5139774;27;20204;-71
2022/02/04 00:54:39;;;;;;;9.23;6.90;;;;;;;;;;5119676;27;20196;-71
2022/02/04 00:57:15;;;;;;;9.33;6.23;;;;;;;;;;5118188;28;20221;-71
2022/02/04 01:13:38;;;;;;;7.77;6.20;;;;;;;;;;5138380;27;20224;-71
2022/02/04 01:27:12;;;;;;;10.57;6.07;;;;;;;;;;5137994;27;20242;-71
2022/02/04 01:29:51;;;;;;;9.77;5.97;;;;;;;;;;5139082;27;20448;-71
2022/02/04 01:32:19;;;;;;;7.40;5.27;;;;;;;;;;5137764;27;20445;-71
2022/02/04 01:34:47;;;;;;;7.07;5.23;;;;;;;;;;5139005;27;20434;-71
2022/02/04 01:37:15;;;;;;;7.17;5.60;;;;;;;;;;5137304;27;20462;-71
2022/02/04 01:39:44;;;;;;;8.57;5.70;;;;;;;;;;5125559;28;20983;-71
2022/02/04 01:42:12;;;;;;;7.77;5.87;;;;;;;;;;5141012;27;20446;-71
2022/02/04 01:44:40;;;;;;;6.00;5.07;;;;;;;;;;5108827;28;20457;-71
2022/02/04 01:47:08;;;;;;;9.37;5.53;;;;;;;;;;5122240;28;20225;-71
2022/02/04 01:49:36;;;;;;;8.20;5.80;;;;;;;;;;5119689;28;20454;-71
2022/02/04 01:52:05;;;;;;;6.87;5.83;;;;;;;;;;5122638;28;20532;-72
2022/02/04 01:54:33;;;;;;;8.10;6.00;;;;;;;;;;5122317;28;21003;-71
2022/02/04 01:57:03;;;;;;;6.63;5.03;;;;;;;;;;5121663;28;20961;-71
2022/02/04 01:59:31;;;;;;;6.07;5.10;;;;;;;;;;5139093;27;20456;-71
2022/02/04 02:01:59;;;;;;;7.97;5.93;;;;;;;;;;5142855;27;20448;-71
2022/02/04 02:04:26;;;;;;;6.40;4.70;;;;;;;;;;5141773;27;20203;-71
2022/02/04 02:06:57;;;;;;;6.73;5.20;;;;;;;;;;5142580;27;20484;-71
2022/02/04 02:09:30;;;;;;;6.47;5.20;;;;;;;;;;5126002;27;20450;-71
2022/02/04 02:12:02;;;;;;;8.10;5.63;;;;;;;;;;5121674;28;20975;-71
2022/02/04 02:14:32;;;;;;;7.20;5.83;;;;;;;;;;5138045;27;20992;-71
2022/02/04 02:39:25;;;;;;;7.37;5.53;;;;;;;;;;5128907;27;20200;-71
2022/02/04 02:44:46;;;;;;;7.10;5.57;;;;;;;;;;5117303;27;20204;-71
2022/02/04 02:47:43;;;;;;;6.83;4.87;;;;;;;;;;5121188;28;20490;-71
2022/02/04 02:50:41;;;;;;;7.00;5.70;;;;;;;;;;5139095;27;20446;-71
2022/02/04 02:59:10;;;;;;;7.30;5.57;;;;;;;;;;5085542;28;20456;-73
2022/02/04 03:01:44;;;;;;;6.13;5.40;;;;;;;;;;5095419;28;20444;-73
2022/02/04 03:04:15;;;;;;;7.30;5.10;;;;;;;;;;5094939;28;20444;-73
2022/02/04 03:06:44;;;;;;;5.87;4.47;;;;;;;;;;5095756;28;20456;-72
2022/02/04 03:09:12;;;;;;;8.23;5.40;;;;;;;;;;5095514;28;20201;-71
2022/02/04 03:11:41;;;;;;;5.90;4.80;;;;;;;;;;5094953;28;20514;-72
2022/02/04 03:14:10;;;;;;;8.00;5.83;;;;;;;;;;5094864;28;20475;-72
2022/02/04 03:16:38;;;;;;;8.10;5.83;;;;;;;;;;5095444;28;20470;-72
2022/02/04 03:19:08;;;;;;;7.30;4.80;;;;;;;;;;5095168;28;20460;-73
2022/02/04 03:21:39;;;;;;;6.43;5.30;;;;;;;;;;5095544;28;20867;-73
2022/02/04 03:24:11;;;;;;;7.17;5.20;;;;;;;;;;5095875;28;20458;-72
2022/02/04 03:26:46;;;;;;;6.33;5.47;;;;;;;;;;5095408;28;20469;-73
2022/02/04 03:29:21;;;;;;;9.13;5.47;;;;;;;;;;5095390;28;20461;-72
2022/02/04 03:31:53;;;;;;;5.77;5.13;;;;;;;;;;5095430;28;20449;-72
2022/02/04 03:34:21;;;;;;;5.40;4.63;;;;;;;;;;5094908;28;20472;-72
2022/02/04 03:36:49;;;;;;;5.73;4.90;;;;;;;;;;5095115;28;20460;-72
2022/02/04 03:39:17;;;;;;;7.90;5.63;;;;;;;;;;5094796;28;20451;-73
2022/02/04 03:41:45;;;;;;;7.13;5.27;;;;;;;;;;5094894;28;20450;-72
2022/02/04 03:44:13;;;;;;;6.83;5.40;;;;;;;;;;5094934;28;20452;-72
2022/02/04 03:46:42;;;;;;;7.10;5.57;;;;;;;;;;5094531;28;20463;-71
2022/02/04 03:49:10;;;;;;;6.70;5.37;;;;;;;;;;5094263;28;20470;-72
2022/02/04 03:51:38;;;;;;;5.10;4.43;;;;;;;;;;5094348;28;20779;-72
2022/02/04 03:54:06;;;;;;;7.40;5.17;;;;;;;;;;5094145;28;20836;-72
2022/02/04 03:56:34;;;;;;;7.67;5.93;;;;;;;;;;5094047;28;20455;-72
2022/02/04 03:59:02;;;;;;;7.07;5.70;;;;;;;;;;5094076;28;20454;-72
2022/02/04 04:01:30;;;;;;;7.03;5.23;;;;;;;;;;5094253;28;20444;-72
2022/02/04 04:04:00;;;;;;;7.03;5.10;;;;;;;;;;5094343;28;20452;-72
2022/02/04 04:06:28;;;;;;;6.43;5.03;;;;;;;;;;5086150;28;20975;-72
2022/02/04 04:08:56;;;;;;;6.33;4.83;;;;;;;;;;5080717;28;20956;-72
2022/02/04 04:11:25;;;;;;;6.77;5.57;;;;;;;;;;5080298;28;20444;-72
2022/02/04 04:13:53;;;;;;;5.87;4.70;;;;;;;;;;5080470;28;20445;-72
2022/02/04 04:16:21;;;;;;;6.60;5.17;;;;;;;;;;5080515;28;20483;-73
2022/02/04 04:18:49;;;;;;;6.80;5.13;;;;;;;;;;5080318;28;20527;-72
2022/02/04 04:21:18;;;;;;;6.63;5.23;;;;;;;;;;5080173;28;20202;-72
2022/02/04 04:23:46;;;;;;;6.37;4.73;;;;;;;;;;5080219;28;20451;-72
2022/02/04 04:26:14;;;;;;;6.43;4.97;;;;;;;;;;5079623;28;20464;-72
2022/02/04 04:28:42;;;;;;;6.37;4.50;;;;;;;;;;5080394;28;20440;-73
2022/02/04 04:31:10;;;;;;;6.27;5.20;;;;;;;;;;5080036;28;20455;-72
2022/02/04 04:33:38;;;;;;;6.20;4.30;;;;;;;;;;5080175;28;20213;-72
2022/02/04 04:36:06;;;;;;;5.03;4.47;;;;;;;;;;5079739;28;20488;-72
2022/02/04 04:38:41;;;;;;;7.60;4.90;;;;;;;;;;5080084;28;20437;-72
2022/02/04 04:41:24;;;;;;;5.97;4.77;;;;;;;;;;5079571;28;20939;-72
2022/02/04 04:44:27;;;;;;;6.60;4.77;;;;;;;;;;5080097;28;20444;-72
2022/02/04 05:28:58;;;;;;;6.23;4.70;;;;;;;;;;5078740;28;20213;-73
2022/02/04 05:31:26;;;;;;;4.73;4.20;;;;;;;;;;5078365;28;20209;-73
2022/02/04 05:33:54;;;;;;;6.80;3.87;;;;;;;;;;5067561;28;20210;-73
2022/02/04 05:36:22;;;;;;;6.50;5.20;;;;;;;;;;5078850;28;20240;-73
2022/02/04 05:38:53;;;;;;;5.07;4.57;;;;;;;;;;5078252;28;20619;-73
2022/02/04 05:41:26;;;;;;;4.53;3.87;;;;;;;;;;5078118;28;20687;-73
2022/02/04 05:43:58;;;;;;;5.33;3.53;;;;;;;;;;5078572;28;20206;-73
2022/02/04 05:46:30;;;;;;;5.07;4.57;;;;;;;;;;5078400;28;20257;-73
2022/02/04 05:49:00;;;;;;;6.63;4.43;;;;;;;;;;5078708;28;20641;-73
2022/02/04 05:51:37;;;;;;;5.43;3.77;;;;;;;;;;5078176;28;20293;-73
2022/02/04 05:54:11;;;;;;;4.97;4.40;;;;;;;;;;5078158;28;20274;-73
2022/02/04 05:56:48;;;;;;;4.43;3.93;;;;;;;;;;5077638;28;20236;-73
2022/02/04 05:59:25;;;;;;;4.83;4.00;;;;;;;;;;5078525;28;20919;-73
2022/02/04 06:02:05;;;;;;;6.63;4.73;;;;;;;;;;5078328;28;20209;-73
2022/02/04 06:04:44;;;;;;;4.40;4.00;;;;;;;;;;5078146;28;20533;-73
2022/02/04 06:10:43;;;;;;;6.63;4.33;;;;;;;;;;5067286;28;20449;-73
2022/02/04 06:13:28;;;;;;;5.43;3.90;;;;;;;;;;5078330;28;20931;-73
2022/02/04 06:24:09;;;;;;;4.17;3.60;;;;;;;;;;5077908;28;20445;-73
2022/02/04 06:26:37;;;;;;;4.53;3.43;;;;;;;;;;5077443;28;20596;-73
2022/02/04 06:29:07;;;;;;;5.33;4.07;;;;;;;;;;5077772;28;20213;-73
2022/02/04 06:31:36;;;;;;;4.33;3.90;;;;;;;;;;5077988;28;20210;-73
2022/02/04 06:34:04;;;;;;;7.97;3.77;;;;;;;;;;5077557;28;20204;-73
2022/02/04 06:36:32;;;;;;;4.97;4.40;;;;;;;;;;5077854;28;20314;-72
2022/02/04 06:39:01;;;;;;;6.33;3.77;;;;;;;;;;5077664;28;20202;-73
2022/02/04 06:41:29;;;;;;;6.33;3.53;;;;;;;;;;5077455;28;20688;-73
2022/02/04 06:44:01;;;;;;;5.90;4.83;;;;;;;;;;5077754;28;20209;-73
2022/02/04 06:46:29;;;;;;;8.67;4.83;;;;;;;;;;5077859;28;20270;-73
2022/02/04 06:48:59;;;;;;;10.43;6.43;;;;;;;;;;5077610;28;20207;-73
2022/02/04 06:51:27;;;;;;;8.33;5.97;;;;;;;;;;5077533;28;20212;-73
2022/02/04 06:53:55;;;;;;;9.70;5.47;;;;;;;;;;5077562;28;20221;-73
2022/02/04 06:56:23;;;;;;;9.30;5.93;;;;;;;;;;5076736;28;20222;-73
2022/02/04 06:58:51;;;;;;;8.50;5.53;;;;;;;;;;5077828;28;20658;-73
2022/02/04 07:01:19;;;;;;;5.33;4.83;;;;;;;;;;5077535;28;20208;-73
2022/02/04 07:03:47;;;;;;;6.37;5.13;;;;;;;;;;5077360;28;20206;-73
2022/02/04 07:06:17;;;;;;;5.90;4.80;;;;;;;;;;5076870;28;20226;-73
2022/02/04 07:09:00;;;;;;;10.10;5.70;;;;;;;;;;5072508;28;20206;-73
2022/02/04 07:11:54;;;;;;;6.23;5.17;;;;;;;;;;5077430;28;20206;-73
2022/02/04 07:14:31;;;;;;;6.43;5.00;;;;;;;;;;5077641;28;20665;-73
2022/02/04 07:17:16;;;;;;;6.30;4.87;;;;;;;;;;5077171;28;20265;-73
2022/02/04 07:19:48;;;;;;;7.37;5.80;;;;;;;;;;5077460;28;20224;-73
2022/02/04 07:22:19;;;;;;;8.77;5.83;;;;;;;;;;5077011;28;20289;-73
2022/02/04 07:24:48;;;;;;;7.90;5.90;;;;;;;;;;5077012;28;20220;-73
2022/02/04 07:27:16;;;;;;;7.60;6.10;;;;;;;;;;5077479;28;20222;-73
2022/02/04 07:29:47;;;;;;;6.17;5.63;;;;;;;;;;5077945;28;20206;-74
2022/02/04 07:32:20;;;;;;;7.07;5.20;;;;;;;;;;5077645;28;20255;-73
2022/02/04 07:35:02;;;;;;;7.47;5.60;;;;;;;;;;5077227;28;20198;-73
2022/02/04 07:43:03;;;;;;;8.63;5.47;;;;;;;;;;5081248;28;20214;-73
2022/02/04 07:45:33;;;;;;;7.40;5.73;;;;;;;;;;5080859;28;20203;-73
2022/02/04 07:48:01;;;;;;;6.20;4.90;;;;;;;;;;5080683;28;20198;-73
2022/02/04 07:50:29;;;;;;;8.93;6.17;;;;;;;;;;5080657;28;20199;-74
2022/02/04 07:52:59;;;;;;;6.77;5.43;;;;;;;;;;5080812;28;20214;-73
2022/02/04 07:55:27;;;;;;;10.37;5.17;;;;;;;;;;5079778;28;20230;-73
2022/02/04 07:57:55;;;;;;;7.90;5.57;;;;;;;;;;5067287;28;20241;-73
2022/02/04 08:00:23;;;;;;;12.90;6.57;;;;;;;;;;5081202;28;20212;-74
2022/02/04 08:02:52;;;;;;;11.13;6.03;;;;;;;;;;5081388;28;20217;-73
2022/02/04 08:05:25;;;;;;;8.33;6.53;;;;;;;;;;5080467;28;20208;-73
2022/02/04 08:07:58;;;;;;;10.63;6.30;;;;;;;;;;5080454;28;20620;-73
2022/02/04 08:10:32;;;;;;;7.97;5.87;;;;;;;;;;5079955;28;20206;-73
2022/02/04 08:16:06;;;;;;;10.87;5.67;;;;;;;;;;5058993;28;20206;-73
2022/02/04 08:19:09;;;;;;;11.33;5.93;;;;;;;;;;5080121;28;20233;-73
2022/02/04 08:21:55;;;;;;;7.23;5.77;;;;;;;;;;5071650;28;20214;-73
2022/02/04 08:24:59;;;;;;;7.20;5.33;;;;;;;;;;5080061;28;20202;-73
2022/02/04 08:33:29;;;;;;;8.27;5.83;;;;;;;;;;5047161;28;20213;-73
2022/02/04 08:36:42;;;;;;;11.20;6.07;;;;;;;;;;5080231;28;20291;-72
2022/02/04 08:53:05;;;;;;;9.87;6.13;;;;;;;;;;5077464;28;20213;-73
2022/02/04 08:55:42;;;;;;;9.23;6.23;;;;;;;;;;5078678;28;20237;-72
2022/02/04 08:58:24;;;;;;;12.33;6.40;;;;;;;;;;5079538;28;20594;-73
2022/02/04 09:01:02;;;;;;;8.20;6.33;;;;;;;;;;5079144;28;20199;-72
2022/02/04 09:03:37;;;;;;;9.53;6.40;;;;;;;;;;5079275;28;20195;-73
2022/02/04 09:06:17;;;;;;;10.37;7.00;;;;;;;;;;5079381;28;20233;-73
2022/02/04 09:08:48;;;;;;;11.20;7.17;;;;;;;;;;5079433;28;20200;-72
2022/02/04 09:11:26;;;;;;;9.20;6.77;;;;;;;;;;5079206;28;20220;-73
2022/02/04 09:17:03;;;;;;;7.87;6.50;;;;;;;;;;5079295;28;20222;-72
2022/02/04 09:19:44;;;;;;;13.90;6.53;;;;;;;;;;5078981;28;20218;-73
2022/02/04 09:22:26;;;;;;;10.53;6.27;;;;;;;;;;5079151;28;20672;-73
2022/02/04 09:24:54;;;;;;;13.17;7.47;;;;;;;;;;5078742;28;20616;-73
2022/02/04 09:27:21;;;;;;;11.33;6.57;;;;;;;;;;5079166;28;20230;-72
2022/02/04 09:29:54;;;;;;;7.67;5.80;;;;;;;;;;5066379;28;20210;-72
2022/02/04 09:32:24;;;;;;;8.93;5.70;;;;;;;;;;5078681;28;20672;-73
2022/02/04 09:34:52;;;;;;;8.93;5.40;;;;;;;;;;5066153;28;20224;-72
2022/02/04 09:37:28;;;;;;;8.43;6.33;;;;;;;;;;5079083;28;20222;-73
2022/02/04 09:39:56;;;;;;;7.30;5.93;;;;;;;;;;5078850;28;20202;-73
2022/02/04 09:42:24;;;;;;;11.60;6.97;;;;;;;;;;5078647;28;20206;-73
2022/02/04 09:44:52;;;;;;;7.70;6.33;;;;;;;;;;5068350;28;20668;-72
2022/02/04 09:47:21;;;;;;;7.63;6.10;;;;;;;;;;5078045;28;20218;-73
2022/02/04 09:50:10;;;;;;;10.77;5.17;;;;;;;;;;5078695;28;20206;-71
2022/02/04 10:10:35;;;;;;;5.67;4.50;;;;;;;;;;5059959;28;20208;-72
2022/02/04 10:16:14;;;;;;;4.07;2.67;;;;;;;;;;5077891;28;20234;-72
2022/02/04 10:18:48;;;;;;;5.43;3.13;;;;;;;;;;5065073;28;20230;-72
2022/02/04 10:21:16;;;;;;;5.97;3.77;;;;;;;;;;5077529;28;20653;-72
2022/02/04 10:23:47;;;;;;;9.93;3.90;;;;;;;;;;5065282;28;20228;-72
2022/02/04 10:26:15;;;;;;;5.47;4.27;;;;;;;;;;5077294;28;20250;-72
2022/02/04 10:28:44;;;;;;;8.00;5.87;;;;;;;;;;5065073;28;20213;-72
2022/02/04 10:31:16;;;;;;;8.27;6.33;;;;;;;;;;5077614;28;20210;-72
2022/02/04 10:33:56;;;;;;;6.83;5.03;;;;;;;;;;5062311;28;20208;-72
2022/02/04 10:36:34;;;;;;;7.00;4.63;;;;;;;;;;5076964;28;20263;-72
2022/02/04 10:39:22;;;;;;;8.03;4.90;;;;;;;;;;5074965;28;20286;-72
2022/02/04 10:42:05;;;;;;;7.07;4.30;;;;;;;;;;5077142;28;20205;-72
2022/02/04 10:44:44;;;;;;;5.83;3.97;;;;;;;;;;5077749;28;20202;-72
2022/02/04 10:47:12;;;;;;;4.57;3.73;;;;;;;;;;5066091;28;20222;-72
2022/02/04 10:49:53;;;;;;;5.77;3.63;;;;;;;;;;5077188;28;20209;-72
2022/02/04 10:52:41;;;;;;;5.23;3.67;;;;;;;;;;5067977;28;20213;-72
2022/02/04 10:55:44;;;;;;;4.43;3.70;;;;;;;;;;5076511;28;20236;-72
2022/02/04 10:58:41;;;;;;;6.87;4.37;;;;;;;;;;5074760;28;20228;-73
2022/02/04 11:01:16;;;;;;;9.00;4.37;;;;;;;;;;5077584;28;20666;-73
2022/02/04 11:03:51;;;;;;;6.93;5.13;;;;;;;;;;5076198;28;20198;-72
2022/02/04 11:06:29;;;;;;;6.60;4.80;;;;;;;;;;5076933;28;20225;-72
2022/02/04 11:09:08;;;;;;;6.93;4.97;;;;;;;;;;5077667;28;20208;-72
2022/02/04 11:11:55;;;;;;;6.13;4.77;;;;;;;;;;5077130;28;20212;-73
2022/02/04 11:31:13;;;;;;;7.93;4.67;;;;;;;;;;5081532;28;20217;-73
2022/02/04 11:34:04;;;;;;;5.47;4.40;;;;;;;;;;5068399;28;20210;-72
2022/02/04 11:36:59;;;;;;;7.33;4.90;;;;;;;;;;5081206;28;20222;-72
2022/02/04 11:51:41;;;;;;;6.47;5.10;;;;;;;;;;5080198;28;20574;-72
2022/02/04 11:54:31;;;;;;;8.33;4.87;;;;;;;;;;5080569;28;20241;-73
2022/02/04 11:57:20;;;;;;;5.90;4.90;;;;;;;;;;5075144;28;20677;-73
2022/02/04 11:59:50;;;;;;;6.97;4.90;;;;;;;;;;5080203;28;20230;-73
2022/02/04 12:02:36;;;;;;;7.40;4.47;;;;;;;;;;5080178;28;20202;-73
2022/02/04 12:05:34;;;;;;;5.87;5.07;;;;;;;;;;5080272;28;20221;-72
2022/02/04 12:08:19;;;;;;;8.13;5.17;;;;;;;;;;5018101;28;20220;-72
2022/02/04 12:10:53;;;;;;;5.97;4.80;;;;;;;;;;5075048;28;20210;-71
2022/02/04 12:13:22;;;;;;;5.80;4.37;;;;;;;;;;5080183;28;20213;-72
2022/02/04 12:16:02;;;;;;;8.33;4.10;;;;;;;;;;5080595;28;20268;-72
2022/02/04 12:19:00;;;;;;;7.07;4.93;;;;;;;;;;5079140;28;20228;-72
2022/02/04 12:21:28;;;;;;;5.17;4.10;;;;;;;;;;5018081;28;20240;-73
2022/02/04 12:23:59;;;;;;;5.40;4.23;;;;;;;;;;5065919;28;20228;-71
2022/02/04 12:26:30;;;;;;;6.27;4.10;;;;;;;;;;5079543;28;20298;-71
2022/02/04 12:29:01;;;;;;;5.37;4.43;;;;;;;;;;5079867;28;20673;-72
2022/02/04 12:31:30;;;;;;;6.83;4.37;;;;;;;;;;5079865;28;20210;-73
2022/02/04 12:33:59;;;;;;;9.47;5.57;;;;;;;;;;5079253;28;20205;-72
2022/02/04 12:36:28;;;;;;;7.07;4.80;;;;;;;;;;5079661;28;20636;-72
2022/02/04 12:38:59;;;;;;;9.70;4.67;;;;;;;;;;5079276;28;20229;-73
2022/02/04 12:41:28;;;;;;;5.97;3.80;;;;;;;;;;5079153;28;20213;-73
2022/02/04 12:43:57;;;;;;;6.93;4.90;;;;;;;;;;5079711;28;20213;-72
2022/02/04 12:46:25;;;;;;;5.30;4.23;;;;;;;;;;5067108;28;20728;-72
2022/02/04 12:49:00;;;;;;;5.33;4.30;;;;;;;;;;5079477;28;20213;-71
2022/02/04 12:51:42;;;;;;;6.63;4.93;;;;;;;;;;5067519;28;20206;-72
2022/02/04 12:54:12;;;;;;;7.00;4.30;;;;;;;;;;5078778;28;20723;-72
2022/02/04 12:56:43;;;;;;;6.60;4.13;;;;;;;;;;5079062;28;20222;-72
2022/02/04 13:02:34;;;;;;;6.60;3.83;;;;;;;;;;5037207;28;20219;-72
2022/02/04 13:07:55;;;;;;;6.90;4.50;;;;;;;;;;5065776;28;20692;-72
2022/02/04 13:10:25;;;;;;;6.57;4.03;;;;;;;;;;5079056;28;20194;-72
2022/02/04 13:12:55;;;;;;;6.20;4.07;;;;;;;;;;5079098;28;20670;-72
2022/02/04 13:15:23;;;;;;;7.23;4.17;;;;;;;;;;5078720;28;20206;-72
2022/02/04 13:17:52;;;;;;;5.00;4.23;;;;;;;;;;5078622;28;20761;-72
2022/02/04 13:20:23;;;;;;;4.73;3.97;;;;;;;;;;5078754;28;20218;-72
2022/02/04 13:22:52;;;;;;;4.20;3.43;;;;;;;;;;5079147;28;20202;-72
2022/02/04 13:25:21;;;;;;;6.40;3.90;;;;;;;;;;5078560;28;20206;-72
2022/02/04 13:28:05;;;;;;;5.70;3.80;;;;;;;;;;5078506;28;20724;-72
2022/02/04 13:30:34;;;;;;;5.37;4.07;;;;;;;;;;5078767;28;20198;-72
2022/02/04 13:33:02;;;;;;;6.17;4.10;;;;;;;;;;5078421;28;20677;-72
2022/02/04 13:35:34;;;;;;;7.07;4.00;;;;;;;;;;5078499;28;20212;-72
2022/02/04 13:38:07;;;;;;;5.47;4.27;;;;;;;;;;5078456;28;20210;-72
2022/02/04 13:40:53;;;;;;;5.47;3.70;;;;;;;;;;5077564;28;20228;-73
2022/02/04 13:43:31;;;;;;;5.60;4.13;;;;;;;;;;5078831;28;20210;-72
2022/02/04 13:46:08;;;;;;;5.23;3.73;;;;;;;;;;5078069;28;20265;-72
2022/02/04 13:48:53;;;;;;;8.90;8.00;;;;;;;;;;5078091;28;20645;-72
2022/02/04 13:51:28;;;;;;;4.53;3.63;;;;;;;;;;5078344;28;20608;-72
2022/02/04 13:54:23;;;;;;;5.27;4.10;;;;;;;;;;5077889;28;20216;-72
2022/02/04 13:56:58;;;;;;;7.10;4.57;;;;;;;;;;5074844;28;20240;-72
2022/02/04 13:59:39;;;;;;;5.90;4.47;;;;;;;;;;5078015;28;20244;-71
2022/02/04 14:02:08;;;;;;;4.50;3.63;;;;;;;;;;5077972;28;20271;-72
2022/02/04 14:04:36;;;;;;;6.37;4.03;;;;;;;;;;5077545;28;20588;-71
2022/02/04 14:07:09;;;;;;;6.60;4.47;;;;;;;;;;5077776;28;20605;-71
2022/02/04 14:09:43;;;;;;;4.93;4.40;;;;;;;;;;5077438;28;20194;-72
2022/02/04 14:12:19;;;;;;;6.57;4.73;;;;;;;;;;5077917;28;20210;-72
2022/02/04 14:15:00;;;;;;;5.83;5.00;;;;;;;;;;5077868;28;20237;-72
2022/02/04 14:17:29;;;;;;;7.67;4.73;;;;;;;;;;5077953;28;20233;-71
2022/02/04 14:19:57;;;;;;;5.43;4.43;;;;;;;;;;5077318;28;20226;-72
2022/02/04 14:22:25;;;;;;;8.03;4.73;;;;;;;;;;5077975;28;20210;-72
2022/02/04 14:24:53;;;;;;;5.93;4.87;;;;;;;;;;5077706;28;20202;-72
2022/02/04 14:27:21;;;;;;;8.17;3.83;;;;;;;;;;5077784;28;20226;-72
2022/02/04 14:29:58;;;;;;;5.67;4.60;;;;;;;;;;5077919;28;20205;-72
2022/02/04 14:32:35;;;;;;;6.40;4.53;;;;;;;;;;5077624;28;20668;-72
2022/02/04 14:35:11;;;;;;;5.23;4.30;;;;;;;;;;5077805;28;20212;-72
2022/02/04 14:49:14;;;;;;;6.07;4.50;;;;;;;;;;5077093;28;20232;-71
2022/02/04 14:52:22;;;;;;;4.80;4.30;;;;;;;;;;5034642;28;20213;-72
2022/02/04 14:58:40;;;;;;;4.87;3.83;;;;;;;;;;5034483;28;20246;-72
2022/02/04 15:00:41;;;;;;;6.57;4.40;;;;;;;;;;5077148;28;20248;-72
2022/02/04 15:03:25;;;;;;;4.83;3.60;;;;;;;;;;5076876;28;20206;-72
2022/02/04 15:06:06;;;;;;;6.10;4.20;;;;;;;;;;5077145;28;20247;-71
2022/02/04 15:08:55;;;;;;;6.37;4.60;;;;;;;;;;5076856;28;20201;-72
2022/02/04 15:11:29;;;;;;;4.87;3.50;;;;;;;;;;5076896;28;20568;-72
2022/02/04 15:13:57;;;;;;;6.97;4.30;;;;;;;;;;5076141;28;20198;-72
2022/02/04 15:16:26;;;;;;;4.57;3.80;;;;;;;;;;5077164;28;20605;-72
2022/02/04 15:18:59;;;;;;;7.10;4.20;;;;;;;;;;5076737;28;20577;-72
2022/02/04 15:21:29;;;;;;;7.10;3.70;;;;;;;;;;5077397;28;20229;-72
2022/02/04 15:23:58;;;;;;;7.80;3.90;;;;;;;;;;5076815;28;20217;-72
2022/02/04 15:26:28;;;;;;;4.87;3.90;;;;;;;;;;5076784;28;20226;-72
2022/02/04 15:28:59;;;;;;;5.73;3.47;;;;;;;;;;5076880;28;20210;-72
2022/02/04 15:31:36;;;;;;;6.77;3.70;;;;;;;;;;5077308;28;20212;-72
2022/02/04 15:34:04;;;;;;;6.43;3.90;;;;;;;;;;5076498;28;20198;-72
2022/02/04 15:36:41;;;;;;;4.87;3.87;;;;;;;;;;5077210;28;20234;-72
2022/02/04 15:39:10;;;;;;;4.97;3.60;;;;;;;;;;5067058;28;20205;-72
2022/02/04 15:41:41;;;;;;;5.00;3.47;;;;;;;;;;5076333;28;20593;-72
2022/02/04 15:44:16;;;;;;;4.47;3.63;;;;;;;;;;5076989;28;20211;-72
2022/02/04 15:47:12;;;;;;;4.60;3.50;;;;;;;;;;5076798;28;20225;-72
2022/02/04 15:50:15;;;;;;;6.27;3.80;;;;;;;;;;5076784;28;20221;-72
2022/02/04 16:01:14;;;;;;;3.47;3.10;;;;;;;;;;5066696;28;20221;-72
2022/02/04 16:04:04;;;;;;;3.97;3.57;;;;;;;;;;5079403;28;20205;-72
2022/02/04 16:06:33;;;;;;;4.33;3.93;;;;;;;;;;5080436;28;20229;-72
2022/02/04 16:09:03;;;;;;;3.87;3.40;;;;;;;;;;5079766;28;20209;-72
2022/02/04 16:11:51;;;;;;;4.10;3.50;;;;;;;;;;5068772;28;20213;-73
2022/02/04 16:14:22;;;;;;;4.60;3.53;;;;;;;;;;5080138;28;20202;-72
2022/02/04 16:16:54;;;;;;;4.53;3.37;;;;;;;;;;5080521;28;20222;-72
2022/02/04 16:19:37;;;;;;;3.20;2.90;;;;;;;;;;5079768;28;20198;-72
2022/02/04 16:22:26;;;;;;;3.17;2.87;;;;;;;;;;5080331;28;20233;-72
2022/02/04 16:30:23;;;;;;;5.60;3.33;;;;;;;;;;5079720;28;20198;-72
2022/02/04 16:32:51;;;;;;;6.37;3.30;;;;;;;;;;5079946;28;20206;-72
2022/02/04 16:35:21;;;;;;;3.23;2.50;;;;;;;;;;5079805;28;20208;-72
2022/02/04 16:38:01;;;;;;;4.50;3.17;;;;;;;;;;5079691;28;20589;-72
2022/02/04 16:40:31;;;;;;;4.57;2.97;;;;;;;;;;5073677;28;20589;-72
2022/02/04 16:42:59;;;;;;;4.10;3.50;;;;;;;;;;5079714;28;20657;-71
2022/02/04 16:45:27;;;;;;;3.93;3.00;;;;;;;;;;5079642;28;20202;-72
2022/02/04 16:47:57;;;;;;;3.77;2.83;;;;;;;;;;5079623;28;20603;-72
2022/02/04 16:50:25;;;;;;;5.00;3.40;;;;;;;;;;5079520;28;20206;-71
2022/02/04 16:52:53;;;;;;;9.10;3.70;;;;;;;;;;5079719;28;20207;-72
2022/02/04 16:55:21;;;;;;;3.03;2.73;;;;;;;;;;5078823;28;20319;-72
2022/02/04 16:57:51;;;;;;;3.37;2.40;;;;;;;;;;5079432;28;20230;-72
2022/02/04 17:00:23;;;;;;;4.97;3.33;;;;;;;;;;5079373;28;20260;-72
2022/02/04 17:02:58;;;;;;;4.43;2.90;;;;;;;;;;5079629;28;20206;-72
2022/02/04 17:05:36;;;;;;;3.30;2.57;;;;;;;;;;5079352;28;20210;-72
2022/02/04 17:08:07;;;;;;;3.17;2.87;;;;;;;;;;5079248;28;20221;-72
2022/02/04 17:10:39;;;;;;;5.30;2.93;;;;;;;;;;5078970;28;20289;-72
2022/02/04 17:13:09;;;;;;;3.90;3.03;;;;;;;;;;5078734;28;20755;-72
2022/02/04 17:15:38;;;;;;;3.03;2.73;;;;;;;;;;5066342;28;20213;-72
2022/02/04 17:18:07;;;;;;;3.43;3.13;;;;;;;;;;5078819;28;20206;-72
2022/02/04 17:20:35;;;;;;;5.77;3.83;;;;;;;;;;5077964;28;20558;-72
2022/02/04 17:23:04;;;;;;;7.17;4.13;;;;;;;;;;5078876;28;20206;-72
2022/02/04 17:25:35;;;;;;;5.33;3.30;;;;;;;;;;5078068;28;20542;-72
2022/02/04 17:28:03;;;;;;;6.30;3.50;;;;;;;;;;5078968;28;20645;-72
2022/02/04 17:30:33;;;;;;;4.20;3.13;;;;;;;;;;5078204;28;20206;-72
2022/02/04 17:33:01;;;;;;;4.37;3.20;;;;;;;;;;5078597;28;20688;-72
2022/02/04 17:35:29;;;;;;;3.33;3.00;;;;;;;;;;5078824;28;20210;-72
2022/02/04 17:38:01;;;;;;;3.90;3.00;;;;;;;;;;5078802;28;20226;-72
2022/02/04 17:40:29;;;;;;;2.90;2.40;;;;;;;;;;5078226;28;20209;-72
2022/02/04 17:42:59;;;;;;;3.40;2.80;;;;;;;;;;5078657;28;20228;-72
2022/02/04 17:45:27;;;;;;;4.17;3.37;;;;;;;;;;5078157;28;20241;-73
2022/02/04 17:48:04;;;;;;;4.27;3.17;;;;;;;;;;5064976;28;20226;-72
2022/02/04 17:50:37;;;;;;;4.40;3.07;;;;;;;;;;5077941;28;20202;-73
2022/02/04 17:53:10;;;;;;;5.00;3.00;;;;;;;;;;5078582;28;20206;-72
2022/02/04 17:55:45;;;;;;;4.87;3.33;;;;;;;;;;5077376;28;20714;-72
2022/02/04 17:58:24;;;;;;;5.33;3.40;;;;;;;;;;5078166;28;20296;-73
2022/02/04 18:09:16;;;;;;;5.27;3.73;;;;;;;;;;5077536;28;20194;-73
2022/02/04 18:11:44;;;;;;;4.63;3.33;;;;;;;;;;5078265;28;20210;-72
2022/02/04 18:14:12;;;;;;;5.73;3.80;;;;;;;;;;5077646;28;20208;-72
2022/02/04 18:16:41;;;;;;;10.93;7.97;;;;;;;;;;5078011;28;20229;-72
2022/02/04 18:19:10;;;;;;;8.93;6.23;;;;;;;;;;5077100;28;20214;-71
2022/02/04 18:21:38;;;;;;;7.70;4.60;;;;;;;;;;5077216;28;20229;-72
2022/02/04 18:24:07;;;;;;;7.03;3.97;;;;;;;;;;5077705;28;20575;-72
2022/02/04 18:26:35;;;;;;;3.83;3.37;;;;;;;;;;5077012;28;20218;-73
2022/02/04 18:29:03;;;;;;;6.53;4.17;;;;;;;;;;5077891;28;20206;-73
2022/02/04 18:31:32;;;;;;;4.43;3.50;;;;;;;;;;5077712;28;20194;-73
2022/02/04 18:34:04;;;;;;;5.80;4.20;;;;;;;;;;5077688;28;20205;-73
2022/02/04 18:36:33;;;;;;;4.27;3.87;;;;;;;;;;5077617;28;20301;-73
2022/02/04 18:39:14;;;;;;;4.30;3.60;;;;;;;;;;5077332;28;20572;-73
2022/02/04 18:44:30;;;;;;;4.40;3.70;;;;;;;;;;5070304;28;20575;-72
2022/02/04 18:47:01;;;;;;;7.17;4.20;;;;;;;;;;5076740;28;20222;-73
2022/02/04 18:49:36;;;;;;;4.17;3.50;;;;;;;;;;5077562;28;20206;-73
2022/02/04 18:52:20;;;;;;;4.43;3.40;;;;;;;;;;5077261;28;20541;-73
2022/02/04 18:55:38;;;;;;;4.53;3.47;;;;;;;;;;5076890;28;20732;-72
2022/02/04 18:57:56;;;;;;;5.47;4.43;;;;;;;;;;5075436;28;20304;-73
2022/02/04 19:00:25;;;;;;;7.17;4.33;;;;;;;;;;5077214;28;20241;-73
2022/02/04 19:02:54;;;;;;;4.73;2.87;;;;;;;;;;5077137;28;20229;-72
2022/02/04 19:05:29;;;;;;;2.77;2.57;;;;;;;;;;5077443;28;20588;-73
2022/02/04 19:08:03;;;;;;;3.13;2.83;;;;;;;;;;5076639;28;20229;-72
2022/02/04 19:10:34;;;;;;;3.57;2.60;;;;;;;;;;5077297;28;20222;-72
2022/02/04 19:13:06;;;;;;;3.07;2.57;;;;;;;;;;5077006;28;20208;-73
2022/02/04 19:15:57;;;;;;;4.67;2.80;;;;;;;;;;5077463;28;20210;-73
2022/02/04 19:18:28;;;;;;;5.77;3.20;;;;;;;;;;5076559;28;20209;-72
2022/02/04 19:21:04;;;;;;;4.43;3.20;;;;;;;;;;5077422;28;20662;-72
2022/02/04 19:23:34;;;;;;;3.23;2.70;;;;;;;;;;5077235;28;20229;-71
2022/02/04 19:26:11;;;;;;;5.53;2.60;;;;;;;;;;5077017;28;20317;-72
2022/02/04 19:28:39;;;;;;;3.07;2.70;;;;;;;;;;5076984;28;20204;-72
2022/02/04 19:31:07;;;;;;;5.40;2.90;;;;;;;;;;5077311;28;20684;-72